Time;durP1;ratioP1;P1;durP2;ratioP2;P2;SDS_P1;SDS_P2;PMS_P1;PMS_P2;Temp;Humidity;BMP_temperature;BMP_pressure;BME280_temperature;BME280_humidity;BME280_pressure;Samples;Min_cycle;Max_cycle;Signal;HPM_P1;HPM_P2
2022/05/10 00:02:18;;;;;;;13.03;11.73;;;16.10;99.90;;;;;;5055513;28;20886;-58
2022/05/10 00:04:50;;;;;;;11.47;10.50;;;16.10;99.90;;;;;;5055854;28;20802;-58
2022/05/10 00:07:19;;;;;;;12.80;11.37;;;16.00;99.90;;;;;;5055799;28;20429;-58
2022/05/10 00:09:46;;;;;;;12.30;11.30;;;16.00;99.90;;;;;;5055746;28;20477;-59
2022/05/10 00:12:13;;;;;;;13.70;10.63;;;16.00;99.90;;;;;;5055371;28;20445;-59
2022/05/10 00:14:40;;;;;;;12.17;11.10;;;16.00;99.90;;;;;;5055428;28;20448;-58
2022/05/10 00:17:08;;;;;;;12.83;11.73;;;15.90;99.90;;;;;;5055268;28;20456;-59
2022/05/10 00:19:37;;;;;;;15.13;11.20;;;15.90;99.90;;;;;;5055665;28;20587;-59
2022/05/10 00:22:04;;;;;;;12.83;11.70;;;15.90;99.90;;;;;;5055199;28;20968;-59
2022/05/10 00:24:32;;;;;;;10.53;9.63;;;15.90;99.90;;;;;;5055671;28;20532;-58
2022/05/10 00:27:00;;;;;;;14.13;11.33;;;15.80;99.90;;;;;;5055141;28;21058;-58
2022/05/10 00:29:27;;;;;;;12.13;10.93;;;15.80;99.90;;;;;;5055360;28;20530;-58
2022/05/10 00:31:55;;;;;;;12.47;11.37;;;15.90;99.90;;;;;;5054997;28;20487;-58
2022/05/10 00:34:22;;;;;;;11.50;10.50;;;15.80;99.90;;;;;;5055128;28;20979;-59
2022/05/10 00:36:51;;;;;;;12.77;11.57;;;15.80;99.90;;;;;;5055098;28;20928;-59
2022/05/10 00:39:18;;;;;;;12.27;11.10;;;15.80;99.90;;;;;;5055216;28;20555;-59
2022/05/10 00:41:53;;;;;;;12.50;11.30;;;15.90;99.90;;;;;;5054999;28;20928;-59
2022/05/10 00:44:25;;;;;;;12.93;11.70;;;15.80;99.90;;;;;;5055035;28;20433;-58
2022/05/10 00:47:02;;;;;;;13.90;12.60;;;15.80;99.90;;;;;;5054845;28;20476;-58
2022/05/10 00:49:34;;;;;;;12.87;11.67;;;15.80;99.90;;;;;;5055154;28;20461;-59
2022/05/10 00:52:09;;;;;;;11.87;10.80;;;15.70;99.90;;;;;;5054767;28;20438;-58
2022/05/10 00:54:44;;;;;;;12.33;11.33;;;15.70;99.90;;;;;;5055051;28;20498;-59
2022/05/10 00:57:27;;;;;;;13.80;12.37;;;15.70;99.90;;;;;;5054742;28;20429;-58
2022/05/10 01:00:01;;;;;;;13.13;11.97;;;15.60;99.90;;;;;;5054671;28;20518;-58
2022/05/10 01:02:39;;;;;;;15.47;12.37;;;15.30;99.90;;;;;;5054720;28;20430;-59
2022/05/10 01:05:12;;;;;;;12.30;11.20;;;15.30;99.90;;;;;;5054539;28;20429;-58
2022/05/10 01:07:52;;;;;;;13.90;12.60;;;15.40;99.90;;;;;;5054636;28;20483;-58
2022/05/10 01:10:32;;;;;;;14.20;12.83;;;15.50;99.90;;;;;;5054591;28;20430;-58
2022/05/10 01:13:11;;;;;;;12.73;11.47;;;15.50;99.90;;;;;;5054348;28;20465;-59
2022/05/10 01:15:41;;;;;;;12.17;11.20;;;15.40;99.90;;;;;;5054620;28;20421;-59
2022/05/10 01:18:08;;;;;;;12.30;11.17;;;15.30;99.90;;;;;;5054315;28;20560;-58
2022/05/10 01:20:43;;;;;;;13.33;12.03;;;15.20;99.90;;;;;;5054124;28;20536;-58
2022/05/10 01:23:32;;;;;;;13.47;12.17;;;15.20;99.90;;;;;;5054559;28;20424;-59
2022/05/10 01:26:05;;;;;;;14.07;12.80;;;15.20;99.90;;;;;;5054005;28;21015;-58
2022/05/10 01:28:40;;;;;;;13.13;11.83;;;15.10;99.90;;;;;;5054159;28;20476;-60
2022/05/10 01:31:13;;;;;;;14.03;12.77;;;15.20;99.90;;;;;;5053931;28;20429;-59
2022/05/10 01:33:47;;;;;;;12.80;11.60;;;15.20;99.90;;;;;;5053937;28;20905;-59
2022/05/10 01:36:24;;;;;;;14.63;12.80;;;15.20;99.90;;;;;;5054052;28;20976;-59
2022/05/10 01:38:58;;;;;;;14.33;11.90;;;15.30;99.90;;;;;;5054208;28;20472;-58
2022/05/10 01:41:35;;;;;;;14.27;12.77;;;15.30;99.90;;;;;;5054078;28;20431;-58
2022/05/10 01:44:11;;;;;;;13.77;11.70;;;15.30;99.90;;;;;;5053862;28;20524;-58
2022/05/10 01:46:38;;;;;;;13.07;11.90;;;15.30;99.90;;;;;;5053663;28;20475;-59
2022/05/10 01:49:16;;;;;;;11.70;10.60;;;15.20;99.90;;;;;;5053675;28;20473;-59
2022/05/10 01:51:49;;;;;;;12.77;11.60;;;15.10;99.90;;;;;;5053727;28;20916;-59
2022/05/10 01:54:58;;;;;;;12.00;10.90;;;15.10;99.90;;;;;;5053809;28;20436;-59
2022/05/10 01:57:26;;;;;;;12.23;11.13;;;15.20;99.90;;;;;;5053614;28;20426;-58
2022/05/10 01:59:59;;;;;;;12.77;11.47;;;15.10;99.90;;;;;;5053701;28;20831;-58
2022/05/10 02:02:29;;;;;;;12.27;11.17;;;15.00;99.90;;;;;;5053357;28;20433;-59
2022/05/10 02:05:00;;;;;;;12.80;11.80;;;14.90;99.90;;;;;;5054072;28;20434;-59
2022/05/10 02:07:30;;;;;;;13.53;11.97;;;14.90;99.90;;;;;;5053307;28;20818;-59
2022/05/10 02:10:01;;;;;;;17.57;12.27;;;14.90;99.90;;;;;;5053415;28;20469;-59
2022/05/10 02:12:35;;;;;;;13.77;12.33;;;14.90;99.90;;;;;;5053669;28;20457;-59
2022/05/10 02:15:09;;;;;;;13.40;12.10;;;14.80;99.90;;;;;;5053217;28;20440;-59
2022/05/10 02:17:41;;;;;;;13.63;12.33;;;14.90;99.90;;;;;;5053611;28;20429;-59
2022/05/10 02:20:14;;;;;;;13.90;12.70;;;14.90;99.90;;;;;;5053503;28;20433;-59
2022/05/10 02:22:46;;;;;;;16.40;12.43;;;14.70;99.90;;;;;;5053584;28;20469;-59
2022/05/10 02:25:18;;;;;;;13.63;12.43;;;14.70;99.90;;;;;;5053212;28;20865;-58
2022/05/10 02:27:49;;;;;;;14.97;13.60;;;14.80;99.90;;;;;;5053024;28;20485;-58
2022/05/10 02:30:22;;;;;;;14.23;12.83;;;14.80;99.90;;;;;;5053240;28;20483;-59
2022/05/10 02:33:10;;;;;;;13.37;12.07;;;14.80;99.90;;;;;;5053117;28;20564;-58
2022/05/10 02:35:44;;;;;;;12.57;11.37;;;14.80;99.90;;;;;;5053432;28;20434;-59
2022/05/10 02:38:14;;;;;;;13.30;12.20;;;14.80;99.90;;;;;;5052917;28;20825;-59
2022/05/10 02:40:43;;;;;;;12.70;11.70;;;14.80;99.90;;;;;;5053410;28;20524;-59
2022/05/10 02:43:14;;;;;;;13.23;12.03;;;14.80;99.90;;;;;;5053224;28;20445;-59
2022/05/10 02:45:43;;;;;;;13.10;11.90;;;14.70;99.90;;;;;;5052985;28;20434;-58
2022/05/10 02:48:15;;;;;;;11.90;10.80;;;14.60;99.90;;;;;;5053584;28;20991;-59
2022/05/10 02:50:42;;;;;;;12.73;11.57;;;14.50;99.90;;;;;;5053134;28;20532;-59
2022/05/10 02:53:09;;;;;;;16.43;13.10;;;14.50;99.90;;;;;;5053281;28;20457;-58
2022/05/10 02:55:41;;;;;;;13.77;12.37;;;14.40;99.90;;;;;;5053438;28;20457;-58
2022/05/10 02:58:27;;;;;;;13.50;12.20;;;14.60;99.90;;;;;;5052990;28;20519;-58
2022/05/10 03:01:02;;;;;;;12.80;11.60;;;14.60;99.90;;;;;;5052730;28;20465;-59
2022/05/10 03:03:31;;;;;;;14.03;12.73;;;14.60;99.90;;;;;;5053334;28;20425;-58
2022/05/10 03:05:58;;;;;;;13.80;12.50;;;14.60;99.90;;;;;;5052953;28;20484;-59
2022/05/10 03:08:26;;;;;;;13.13;11.93;;;14.60;99.90;;;;;;5052727;28;20857;-58
2022/05/10 03:10:53;;;;;;;16.40;13.50;;;14.60;99.90;;;;;;5052813;28;20445;-59
2022/05/10 03:13:20;;;;;;;20.20;13.60;;;14.50;99.90;;;;;;5053089;28;20452;-59
2022/05/10 03:15:47;;;;;;;13.53;12.23;;;14.40;99.90;;;;;;5056522;28;20453;-59
2022/05/10 03:18:16;;;;;;;13.67;12.27;;;14.50;99.90;;;;;;5056844;28;20555;-59
2022/05/10 03:20:43;;;;;;;14.50;13.17;;;14.50;99.90;;;;;;5056689;28;20524;-59
2022/05/10 03:23:11;;;;;;;12.67;11.57;;;14.50;99.90;;;;;;5056531;28;20499;-60
2022/05/10 03:25:38;;;;;;;12.77;11.60;;;14.40;99.90;;;;;;5056416;28;20548;-58
2022/05/10 03:28:06;;;;;;;13.00;11.90;;;14.40;99.90;;;;;;5056585;28;20488;-58
2022/05/10 03:30:34;;;;;;;13.07;11.90;;;14.40;99.90;;;;;;5056108;28;20445;-58
2022/05/10 03:33:01;;;;;;;12.57;11.43;;;14.40;99.90;;;;;;5056227;28;20487;-59
2022/05/10 03:35:30;;;;;;;14.10;12.83;;;14.30;99.90;;;;;;5056463;28;20956;-59
2022/05/10 03:37:57;;;;;;;15.87;14.33;;;14.30;99.90;;;;;;5056720;28;20548;-59
2022/05/10 03:40:24;;;;;;;13.00;11.90;;;14.40;99.90;;;;;;5056064;28;20449;-59
2022/05/10 03:42:53;;;;;;;13.70;12.20;;;14.30;99.90;;;;;;5056463;28;20448;-59
2022/05/10 03:45:22;;;;;;;15.10;13.67;;;14.30;99.90;;;;;;5056229;28;20453;-59
2022/05/10 03:47:50;;;;;;;13.90;12.60;;;14.20;99.90;;;;;;5056162;28;20563;-59
2022/05/10 03:50:19;;;;;;;15.30;13.87;;;14.30;99.90;;;;;;5055961;28;20955;-59
2022/05/10 03:52:48;;;;;;;13.73;12.47;;;14.30;99.90;;;;;;5056267;28;20810;-58
2022/05/10 03:55:17;;;;;;;15.10;13.50;;;14.30;99.90;;;;;;5055913;28;20875;-59
2022/05/10 03:57:45;;;;;;;14.63;13.13;;;14.00;99.90;;;;;;5055795;28;20450;-59
2022/05/10 04:00:16;;;;;;;14.90;13.50;;;14.10;99.90;;;;;;5055855;28;20445;-59
2022/05/10 04:02:44;;;;;;;14.73;12.60;;;14.10;99.90;;;;;;5056061;28;20888;-59
2022/05/10 04:05:12;;;;;;;14.87;13.37;;;14.10;99.90;;;;;;5055614;28;20807;-59
2022/05/10 04:07:39;;;;;;;14.83;13.63;;;14.10;99.90;;;;;;5055483;28;20488;-59
2022/05/10 04:10:10;;;;;;;16.70;15.20;;;14.20;99.90;;;;;;5055808;28;20449;-59
2022/05/10 04:12:38;;;;;;;14.80;13.30;;;14.20;99.90;;;;;;5055896;28;20529;-59
2022/05/10 04:15:07;;;;;;;13.00;11.90;;;14.20;99.90;;;;;;5055674;28;20449;-59
2022/05/10 04:17:35;;;;;;;14.67;13.47;;;14.10;99.90;;;;;;5055449;28;20955;-59
2022/05/10 04:20:02;;;;;;;14.30;13.00;;;14.20;99.90;;;;;;5055511;28;20454;-58
2022/05/10 04:22:29;;;;;;;20.70;13.13;;;14.20;99.90;;;;;;5055664;28;20452;-59
2022/05/10 04:24:56;;;;;;;17.00;13.90;;;14.10;99.90;;;;;;5054791;28;20449;-60
2022/05/10 04:27:25;;;;;;;16.03;14.50;;;14.00;99.90;;;;;;5055271;28;20472;-59
2022/05/10 04:29:52;;;;;;;15.37;13.80;;;14.10;99.90;;;;;;5055153;28;20472;-59
2022/05/10 04:32:20;;;;;;;15.07;13.47;;;14.20;99.90;;;;;;5055014;28;20484;-58
2022/05/10 04:34:47;;;;;;;15.37;13.97;;;14.30;99.90;;;;;;5055077;28;20959;-59
2022/05/10 04:37:14;;;;;;;16.20;14.20;;;14.20;99.90;;;;;;5055067;28;20508;-59
2022/05/10 04:42:27;;;;;;;15.87;14.17;;;14.30;99.90;;;;;;5055135;28;20544;-58
2022/05/10 04:44:54;;;;;;;14.73;13.00;;;14.20;99.90;;;;;;5055070;28;20528;-58
2022/05/10 04:47:22;;;;;;;14.13;12.90;;;14.20;99.90;;;;;;5054860;28;21100;-58
2022/05/10 04:49:49;;;;;;;15.90;13.60;;;14.20;99.90;;;;;;5054743;28;20460;-59
2022/05/10 04:52:16;;;;;;;15.00;13.60;;;14.30;99.90;;;;;;5055066;28;20536;-59
2022/05/10 04:54:43;;;;;;;16.40;14.90;;;14.40;99.90;;;;;;5054711;28;20449;-58
2022/05/10 04:57:10;;;;;;;16.30;14.80;;;14.50;99.90;;;;;;5055076;28;20434;-58
2022/05/10 04:59:39;;;;;;;16.90;15.30;;;14.60;99.90;;;;;;5054416;28;21030;-58
2022/05/10 05:02:06;;;;;;;14.47;13.10;;;14.70;99.90;;;;;;5054864;28;20813;-60
2022/05/10 05:04:33;;;;;;;17.23;14.67;;;14.60;99.90;;;;;;5054420;28;20452;-61
2022/05/10 05:07:00;;;;;;;16.63;15.13;;;14.70;99.90;;;;;;5054707;28;20481;-58
2022/05/10 05:09:27;;;;;;;16.40;14.80;;;14.70;99.90;;;;;;5054472;28;20552;-58
2022/05/10 05:11:56;;;;;;;15.90;14.43;;;14.70;99.90;;;;;;5054490;28;20472;-58
2022/05/10 05:14:24;;;;;;;15.97;14.30;;;14.80;99.90;;;;;;5054022;28;20537;-58
2022/05/10 05:16:54;;;;;;;18.90;16.90;;;14.90;99.90;;;;;;5054214;28;20487;-58
2022/05/10 05:19:21;;;;;;;17.90;15.00;;;14.90;99.90;;;;;;5054325;28;20475;-58
2022/05/10 05:21:48;;;;;;;19.00;15.00;;;15.00;99.90;;;;;;5054356;28;20477;-57
2022/05/10 05:24:15;;;;;;;15.93;14.37;;;15.10;99.90;;;;;;5054253;28;20449;-58
2022/05/10 05:26:42;;;;;;;15.90;14.50;;;15.10;99.90;;;;;;5054047;28;20457;-59
2022/05/10 05:29:10;;;;;;;17.00;15.20;;;15.20;99.90;;;;;;5053912;28;20469;-58
2022/05/10 05:31:37;;;;;;;17.17;15.67;;;15.40;99.90;;;;;;5053390;28;20480;-59
2022/05/10 05:34:05;;;;;;;17.27;15.60;;;15.40;99.90;;;;;;5054059;28;20445;-58
2022/05/10 05:36:33;;;;;;;16.63;15.10;;;15.50;99.90;;;;;;5053377;28;21001;-59
2022/05/10 05:39:00;;;;;;;16.50;14.90;;;15.60;99.90;;;;;;5054020;28;20501;-59
2022/05/10 05:41:27;;;;;;;17.13;15.30;;;15.70;99.90;;;;;;5053800;28;20473;-58
2022/05/10 05:43:54;;;;;;;15.80;14.10;;;15.70;99.90;;;;;;5053571;28;20496;-58
2022/05/10 05:46:21;;;;;;;16.73;15.10;;;15.80;99.90;;;;;;5053683;28;20817;-59
2022/05/10 05:48:49;;;;;;;15.73;14.33;;;15.90;99.90;;;;;;5053677;28;20507;-59
2022/05/10 05:51:17;;;;;;;16.97;15.37;;;16.10;99.90;;;;;;5053711;28;20485;-59
2022/05/10 05:53:45;;;;;;;15.53;13.93;;;16.10;99.90;;;;;;5053908;28;20928;-59
2022/05/10 05:56:13;;;;;;;16.47;14.77;;;16.20;99.90;;;;;;5053333;28;20892;-59
2022/05/10 05:58:41;;;;;;;16.80;15.37;;;16.30;99.90;;;;;;5053626;28;20465;-60
2022/05/10 06:01:12;;;;;;;17.50;15.03;;;16.30;99.90;;;;;;5053000;28;20455;-60
2022/05/10 06:03:42;;;;;;;17.67;14.90;;;16.40;99.90;;;;;;5053302;28;20962;-60
2022/05/10 06:06:09;;;;;;;16.20;14.40;;;16.40;99.90;;;;;;5053221;28;20449;-59
2022/05/10 06:08:38;;;;;;;15.60;14.10;;;16.50;99.90;;;;;;5053294;28;20576;-59
2022/05/10 06:11:05;;;;;;;15.83;14.23;;;16.60;99.90;;;;;;5053119;28;20539;-60
2022/05/10 06:13:32;;;;;;;16.67;14.87;;;16.70;99.90;;;;;;5053543;28;20871;-59
2022/05/10 06:15:59;;;;;;;16.50;14.90;;;16.80;99.90;;;;;;5052938;28;20460;-60
2022/05/10 06:18:26;;;;;;;16.63;15.00;;;16.80;99.90;;;;;;5053041;28;20466;-59
2022/05/10 06:20:54;;;;;;;14.90;13.57;;;17.00;99.90;;;;;;5053151;28;20453;-59
2022/05/10 06:23:21;;;;;;;15.53;13.83;;;17.00;99.90;;;;;;5053218;28;20488;-60
2022/05/10 06:25:50;;;;;;;15.97;14.37;;;17.10;99.90;;;;;;5052523;28;20488;-59
2022/05/10 06:28:19;;;;;;;15.97;13.77;;;17.20;99.90;;;;;;5052863;28;20996;-59
2022/05/10 06:30:47;;;;;;;14.43;13.03;;;17.30;99.90;;;;;;5053016;28;20460;-59
2022/05/10 06:33:15;;;;;;;16.50;14.87;;;17.50;99.90;;;;;;5052759;28;20477;-59
2022/05/10 06:35:44;;;;;;;17.80;15.53;;;17.50;99.90;;;;;;5052654;28;20460;-59
2022/05/10 06:38:16;;;;;;;19.83;14.23;;;17.60;99.90;;;;;;5053106;28;20471;-59
2022/05/10 06:40:44;;;;;;;15.53;13.83;;;17.70;99.90;;;;;;5053008;28;20436;-59
2022/05/10 06:43:13;;;;;;;17.60;15.50;;;;;;;;;;5052732;28;20928;-59
2022/05/10 06:45:41;;;;;;;16.10;13.70;;;17.80;99.90;;;;;;5052466;28;21026;-60
2022/05/10 06:48:10;;;;;;;14.37;13.17;;;17.90;99.90;;;;;;5053624;28;21027;-60
2022/05/10 06:50:38;;;;;;;15.70;14.10;;;18.00;99.90;;;;;;5057096;28;20446;-59
2022/05/10 06:53:06;;;;;;;15.10;12.93;;;18.20;99.90;;;;;;5057151;28;20495;-59
2022/05/10 06:55:35;;;;;;;17.67;14.90;;;18.20;99.90;;;;;;5056655;28;20453;-58
2022/05/10 06:58:03;;;;;;;15.73;14.10;;;18.20;99.90;;;;;;5056994;28;20468;-59
2022/05/10 07:00:33;;;;;;;16.67;14.00;;;18.20;99.90;;;;;;5056880;28;20453;-60
2022/05/10 07:03:03;;;;;;;15.67;13.93;;;18.30;99.90;;;;;;5056822;28;20426;-60
2022/05/10 07:05:30;;;;;;;15.87;14.23;;;18.40;99.90;;;;;;5056786;28;20452;-59
2022/05/10 07:07:58;;;;;;;16.37;13.20;;;18.50;99.90;;;;;;5056475;28;20987;-59
2022/05/10 07:10:25;;;;;;;14.93;13.37;;;18.50;99.90;;;;;;5056656;28;20449;-59
2022/05/10 07:12:53;;;;;;;13.43;12.13;;;18.80;99.90;;;;;;5056496;28;20445;-59
2022/05/10 07:15:21;;;;;;;20.10;12.70;;;18.90;99.90;;;;;;5056151;28;20959;-59
2022/05/10 07:17:49;;;;;;;14.93;13.43;;;19.00;99.90;;;;;;5056442;28;20456;-59
2022/05/10 07:20:17;;;;;;;18.57;12.57;;;19.10;99.90;;;;;;5056334;28;20492;-59
2022/05/10 07:22:45;;;;;;;14.40;13.10;;;19.20;99.90;;;;;;5056709;28;20449;-59
2022/05/10 07:25:13;;;;;;;13.73;11.50;;;19.30;99.90;;;;;;5056133;28;20464;-59
2022/05/10 07:27:41;;;;;;;15.30;13.77;;;19.50;99.90;;;;;;5056056;28;20483;-59
2022/05/10 07:30:10;;;;;;;13.77;11.93;;;19.50;99.90;;;;;;5056013;28;20507;-59
2022/05/10 07:32:37;;;;;;;18.30;12.40;;;19.60;99.90;;;;;;5055870;28;20481;-59
2022/05/10 07:35:07;;;;;;;19.47;12.93;;;19.60;99.90;;;;;;5056143;28;20445;-59
2022/05/10 07:37:34;;;;;;;13.23;11.90;;;19.80;99.90;;;;;;5055964;28;20441;-60
2022/05/10 07:40:02;;;;;;;13.53;11.97;;;20.20;99.90;;;;;;5056162;28;20444;-59
2022/05/10 07:42:30;;;;;;;13.80;12.00;;;20.80;99.90;;;;;;5056356;28;20449;-59
2022/05/10 07:44:57;;;;;;;15.63;11.93;;;21.50;99.90;;;;;;5055732;28;20455;-59
2022/05/10 07:47:24;;;;;;;12.60;11.23;;;21.70;99.90;;;;;;5055644;28;20445;-59
2022/05/10 07:49:51;;;;;;;13.60;11.93;;;22.30;99.90;;;;;;5055996;28;20468;-59
2022/05/10 07:52:20;;;;;;;11.47;10.47;;;22.70;99.90;;;;;;5055692;28;20535;-60
2022/05/10 07:54:47;;;;;;;11.17;10.27;;;23.20;99.90;;;;;;5055712;28;20477;-59
2022/05/10 07:57:14;;;;;;;10.23;9.30;;;23.50;99.90;;;;;;5055343;28;20978;-60
2022/05/10 07:59:41;;;;;;;11.87;10.77;;;23.60;99.90;;;;;;5054783;28;20496;-59
2022/05/10 08:02:09;;;;;;;9.50;8.60;;;24.20;99.90;;;;;;5055260;28;20536;-59
2022/05/10 08:04:36;;;;;;;10.63;9.53;;;24.90;99.90;;;;;;5055669;28;20449;-59
2022/05/10 08:07:04;;;;;;;8.37;7.67;;;25.20;99.90;;;;;;5055563;28;20445;-59
2022/05/10 08:09:33;;;;;;;8.60;7.80;;;25.30;98.70;;;;;;5055444;28;20485;-60
2022/05/10 08:12:00;;;;;;;7.77;6.97;;;25.60;97.80;;;;;;5055221;28;20449;-59
2022/05/10 08:14:27;;;;;;;7.67;6.93;;;25.60;96.80;;;;;;5055353;28;20449;-60
2022/05/10 08:16:55;;;;;;;7.67;6.87;;;25.70;95.80;;;;;;5055231;28;20453;-60
2022/05/10 08:19:22;;;;;;;8.20;7.50;;;25.50;95.20;;;;;;5055046;28;20536;-59
2022/05/10 08:21:49;;;;;;;7.03;6.53;;;25.30;95.20;;;;;;5055070;28;20947;-60
2022/05/10 08:24:16;;;;;;;10.57;7.27;;;25.80;95.10;;;;;;5055129;28;20449;-60
2022/05/10 08:26:45;;;;;;;6.97;6.40;;;26.20;94.00;;;;;;5055390;28;20544;-60
2022/05/10 08:29:13;;;;;;;8.30;6.90;;;26.80;94.20;;;;;;5055050;28;20478;-61
2022/05/10 08:31:40;;;;;;;7.27;6.60;;;27.50;94.00;;;;;;5054674;28;20485;-60
2022/05/10 08:34:07;;;;;;;8.07;7.27;;;28.00;92.40;;;;;;5055223;28;20449;-60
2022/05/10 08:36:35;;;;;;;7.80;7.10;;;27.70;90.40;;;;;;5055266;28;20495;-59
2022/05/10 08:39:02;;;;;;;10.00;6.90;;;28.30;90.40;;;;;;5054859;28;20466;-60
2022/05/10 08:41:33;;;;;;;7.50;6.80;;;28.50;89.20;;;;;;5055106;28;20455;-60
2022/05/10 08:44:10;;;;;;;7.10;6.47;;;28.10;87.40;;;;;;5055137;28;20440;-60
2022/05/10 08:46:41;;;;;;;6.83;6.20;;;27.90;87.40;;;;;;5054654;28;20797;-61
2022/05/10 08:49:14;;;;;;;8.23;7.40;;;28.00;86.90;;;;;;5054696;28;20489;-60
2022/05/10 08:51:42;;;;;;;6.87;6.23;;;28.90;88.30;;;;;;5054538;28;20788;-60
2022/05/10 08:54:09;;;;;;;7.73;7.13;;;29.30;89.50;;;;;;5054806;28;20445;-60
2022/05/10 08:56:45;;;;;;;7.10;6.40;;;28.90;84.10;;;;;;5054298;28;20464;-59
2022/05/10 08:59:30;;;;;;;6.83;6.20;;;29.10;84.40;;;;;;5054455;28;20530;-60
2022/05/10 09:02:00;;;;;;;9.10;7.10;;;29.10;83.50;;;;;;5054468;28;20846;-59
2022/05/10 09:04:42;;;;;;;6.53;5.93;;;29.50;80.70;;;;;;5054446;28;20476;-60
2022/05/10 09:07:25;;;;;;;6.03;5.53;;;29.20;78.00;;;;;;5054499;28;20433;-60
2022/05/10 09:10:01;;;;;;;7.70;6.60;;;28.70;78.20;;;;;;5054479;28;20485;-61
2022/05/10 09:12:30;;;;;;;6.60;6.10;;;28.20;78.40;;;;;;5052898;28;20430;-61
2022/05/10 09:15:01;;;;;;;6.90;6.00;;;28.90;77.20;;;;;;5054025;28;20513;-61
2022/05/10 09:17:30;;;;;;;7.27;6.70;;;28.20;76.20;;;;;;5054417;28;20864;-61
2022/05/10 09:19:58;;;;;;;5.90;5.50;;;28.40;76.40;;;;;;5054299;28;20475;-61
2022/05/10 09:22:34;;;;;;;5.50;5.10;;;28.40;76.60;;;;;;5054335;28;20449;-61
2022/05/10 09:25:03;;;;;;;7.50;6.90;;;28.40;73.20;;;;;;5054153;28;20547;-61
2022/05/10 09:27:33;;;;;;;6.07;5.47;;;28.10;73.20;;;;;;5053777;28;20776;-60
2022/05/10 09:30:02;;;;;;;6.50;6.03;;;29.10;72.00;;;;;;5053961;28;20497;-61
2022/05/10 09:35:18;;;;;;;5.97;5.50;;;29.90;72.40;;;;;;5053636;28;20487;-61
2022/05/10 09:37:52;;;;;;;6.27;5.70;;;30.40;69.40;;;;;;5053590;28;20445;-61
2022/05/10 09:40:27;;;;;;;6.53;5.90;;;29.50;69.60;;;;;;5053825;28;20548;-60
2022/05/10 09:43:11;;;;;;;6.70;6.10;;;28.90;70.10;;;;;;5054038;28;20462;-60
2022/05/10 09:45:40;;;;;;;6.50;6.00;;;28.80;72.90;;;;;;5053614;28;20950;-60
2022/05/10 09:48:15;;;;;;;5.70;5.20;;;30.00;70.20;;;;;;5053363;28;20995;-61
2022/05/10 09:50:45;;;;;;;10.33;5.67;;;30.20;67.20;;;;;;5053908;28;20524;-60
2022/05/10 09:53:20;;;;;;;5.67;5.27;;;30.50;66.70;;;;;;5053238;28;20940;-60
2022/05/10 09:55:57;;;;;;;6.10;5.60;;;29.90;65.10;;;;;;5053923;28;20482;-60
2022/05/10 09:58:28;;;;;;;6.03;5.63;;;29.70;68.30;;;;;;5053785;28;20477;-60
2022/05/10 10:00:59;;;;;;;6.00;5.50;;;30.20;66.60;;;;;;5053145;28;20461;-60
2022/05/10 10:03:28;;;;;;;5.77;5.33;;;30.30;67.10;;;;;;5053750;28;20429;-61
2022/05/10 10:06:31;;;;;;;6.90;5.03;;;31.10;66.60;;;;;;5053153;28;20544;-61
2022/05/10 10:08:59;;;;;;;6.30;5.50;;;30.90;62.00;;;;;;5052985;28;20572;-61
2022/05/10 10:11:28;;;;;;;9.30;5.73;;;30.40;61.40;;;;;;5053252;28;20554;-61
2022/05/10 10:13:58;;;;;;;6.43;5.80;;;30.50;64.40;;;;;;5053188;28;20494;-60
2022/05/10 10:16:30;;;;;;;6.67;5.97;;;30.80;60.80;;;;;;5053161;28;20448;-60
2022/05/10 10:19:01;;;;;;;5.47;5.00;;;30.50;61.80;;;;;;5053058;28;20469;-61
2022/05/10 10:21:38;;;;;;;6.03;5.53;;;30.90;62.90;;;;;;5053437;28;20520;-60
2022/05/10 10:24:05;;;;;;;6.50;5.83;;;30.00;59.70;;;;;;5053078;28;20528;-60
2022/05/10 10:26:39;;;;;;;5.87;5.37;;;29.00;61.70;;;;;;5053510;28;20441;-60
2022/05/10 10:29:16;;;;;;;6.47;5.97;;;28.10;62.60;;;;;;5052870;28;21130;-61
2022/05/10 10:31:50;;;;;;;5.37;4.83;;;27.50;65.30;;;;;;5051659;28;20472;-61
2022/05/10 10:34:26;;;;;;;6.23;5.30;;;27.70;62.10;;;;;;5053277;28;20512;-60
2022/05/10 10:36:59;;;;;;;5.97;5.53;;;28.00;62.60;;;;;;5053189;28;20781;-60
2022/05/10 10:39:33;;;;;;;6.87;5.43;;;27.80;62.90;;;;;;5052895;28;21022;-61
2022/05/10 10:42:09;;;;;;;7.10;6.40;;;27.30;64.40;;;;;;5052803;28;20436;-60
2022/05/10 10:44:39;;;;;;;6.00;5.50;;;27.00;63.10;;;;;;5052988;28;20551;-60
2022/05/10 10:47:16;;;;;;;5.97;5.43;;;27.20;64.40;;;;;;5052704;28;20445;-61
2022/05/10 10:49:49;;;;;;;5.53;5.13;;;27.20;65.50;;;;;;5052558;28;20576;-59
2022/05/10 10:52:18;;;;;;;6.50;6.03;;;27.90;65.70;;;;;;5052974;28;20600;-59
2022/05/10 10:54:46;;;;;;;6.47;5.87;;;28.90;64.70;;;;;;5052449;28;20469;-59
2022/05/10 10:57:37;;;;;;;6.03;5.43;;;29.90;60.30;;;;;;5053042;28;20448;-60
2022/05/10 11:00:14;;;;;;;9.97;5.37;;;30.10;59.40;;;;;;5052754;28;20429;-59
2022/05/10 11:03:06;;;;;;;5.33;4.93;;;30.30;58.20;;;;;;5052411;28;20433;-60
2022/05/10 11:06:17;;;;;;;5.40;4.93;;;29.60;58.60;;;;;;5052880;28;20433;-59
2022/05/10 11:09:03;;;;;;;5.20;4.80;;;29.40;59.00;;;;;;5052787;28;20489;-59
2022/05/10 11:11:42;;;;;;;5.60;5.13;;;29.80;59.70;;;;;;5051997;28;20751;-59
2022/05/10 11:14:23;;;;;;;5.80;4.60;;;30.50;57.40;;;;;;5052463;28;20410;-60
2022/05/10 11:17:01;;;;;;;7.33;5.20;;;30.60;57.30;;;;;;5052750;28;20480;-60
2022/05/10 11:19:53;;;;;;;5.73;5.13;;;30.60;57.10;;;;;;5052334;28;20460;-60
2022/05/10 11:22:35;;;;;;;6.10;5.50;;;30.80;56.40;;;;;;5052635;28;20441;-60
2022/05/10 11:25:22;;;;;;;5.80;5.40;;;31.00;57.30;;;;;;5052357;28;20455;-60
2022/05/10 11:28:18;;;;;;;4.83;4.43;;;31.70;56.60;;;;;;5052731;28;20426;-60
2022/05/10 11:30:50;;;;;;;6.03;4.60;;;30.10;55.30;;;;;;5052579;28;20534;-60
2022/05/10 11:33:29;;;;;;;4.40;3.90;;;30.30;56.20;;;;;;5051918;28;20481;-60
2022/05/10 11:36:16;;;;;;;5.53;4.60;;;31.00;55.60;;;;;;5054784;28;20892;-60
2022/05/10 11:39:37;;;;;;;4.60;4.20;;;31.80;53.80;;;;;;5056288;28;20471;-60
2022/05/10 11:42:24;;;;;;;6.20;4.60;;;31.80;56.10;;;;;;5055796;28;20969;-59
2022/05/10 11:45:09;;;;;;;5.07;4.57;;;31.90;54.20;;;;;;5056183;28;20426;-60
2022/05/10 11:47:59;;;;;;;5.30;4.90;;;30.80;54.20;;;;;;5055985;28;20468;-60
2022/05/10 11:54:00;;;;;;;5.30;4.90;;;28.60;54.00;;;;;;5055912;28;20405;-60
2022/05/10 11:56:34;;;;;;;5.60;5.20;;;27.50;55.50;;;;;;5056189;28;20541;-60
2022/05/10 11:59:04;;;;;;;5.80;5.30;;;28.00;57.50;;;;;;5055541;28;20540;-60
2022/05/10 12:01:43;;;;;;;5.50;5.10;;;27.80;55.40;;;;;;5055867;28;20440;-59
2022/05/10 12:04:35;;;;;;;4.90;4.47;;;28.50;56.80;;;;;;5055859;28;20449;-59
2022/05/10 12:07:35;;;;;;;6.70;5.23;;;28.90;56.80;;;;;;5055438;28;20434;-59
2022/05/10 12:10:06;;;;;;;4.50;4.20;;;29.10;55.60;;;;;;5055351;28;20465;-59
2022/05/10 12:13:07;;;;;;;4.43;4.13;;;29.10;54.50;;;;;;5055615;28;20484;-60
2022/05/10 12:21:57;;;;;;;5.63;5.13;;;27.80;55.90;;;;;;5049142;28;20481;-59
2022/05/10 12:24:36;;;;;;;5.43;4.93;;;27.40;56.50;;;;;;5055187;28;20433;-59
2022/05/10 12:27:35;;;;;;;12.13;4.90;;;27.40;55.40;;;;;;5055528;28;20434;-60
2022/05/10 12:30:10;;;;;;;5.33;4.83;;;27.30;56.30;;;;;;5055450;28;20492;-59
2022/05/10 12:32:47;;;;;;;5.23;4.83;;;26.80;55.40;;;;;;5054762;28;20873;-60
2022/05/10 12:35:47;;;;;;;4.63;4.33;;;26.60;56.20;;;;;;5055184;28;20486;-60
2022/05/10 12:38:34;;;;;;;5.63;5.07;;;26.80;56.70;;;;;;5029859;28;20518;-60
2022/05/10 12:41:09;;;;;;;5.30;4.90;;;26.70;57.50;;;;;;5055299;28;20432;-60
2022/05/10 12:44:09;;;;;;;5.10;4.70;;;26.70;58.00;;;;;;5054687;28;20960;-60
2022/05/10 12:46:53;;;;;;;7.43;4.90;;;26.80;58.40;;;;;;5054740;28;20511;-62
2022/05/10 12:49:44;;;;;;;11.93;5.13;;;26.90;57.50;;;;;;5054678;28;20521;-61
2022/05/10 12:52:24;;;;;;;4.87;4.47;;;26.90;58.50;;;;;;5054877;28;20509;-58
2022/05/10 12:54:57;;;;;;;4.80;4.40;;;27.10;57.30;;;;;;5054558;28;20896;-61
2022/05/10 12:57:35;;;;;;;5.67;5.20;;;27.20;57.30;;;;;;5054602;28;20524;-61
2022/05/10 13:00:11;;;;;;;5.43;5.03;;;27.60;57.20;;;;;;5055040;28;20866;-59
2022/05/10 13:02:42;;;;;;;5.60;4.90;;;28.00;58.30;;;;;;5054711;28;20484;-59
2022/05/10 13:05:16;;;;;;;8.90;5.03;;;27.80;58.10;;;;;;5054287;28;20954;-59
2022/05/10 13:08:03;;;;;;;5.77;5.17;;;27.90;57.90;;;;;;5054599;28;20425;-60
2022/05/10 13:10:31;;;;;;;4.93;4.50;;;28.30;58.90;;;;;;5054382;28;20473;-60
2022/05/10 13:13:02;;;;;;;4.70;4.37;;;28.40;56.50;;;;;;5054380;28;20445;-60
2022/05/10 13:15:31;;;;;;;5.67;5.17;;;28.60;55.80;;;;;;5054211;28;20434;-61
2022/05/10 13:18:00;;;;;;;5.30;4.60;;;28.60;56.20;;;;;;5054420;28;20560;-60